Time;durP1;ratioP1;P1;durP2;ratioP2;P2;SDS_P1;SDS_P2;PMS_P1;PMS_P2;Temp;Humidity;BMP_temperature;BMP_pressure;BME280_temperature;BME280_humidity;BME280_pressure;Samples;Min_cycle;Max_cycle;Signal;HPM_P1;HPM_P2
2022/07/25 00:01:25;;;;;;;7.80;5.15;;;;;;;22.45;94.60;99740.59;4953109;29;20027;-65
2022/07/25 00:03:50;;;;;;;8.40;4.90;;;;;;;22.41;93.88;99741.81;4952732;29;20447;-65
2022/07/25 00:06:16;;;;;;;7.38;4.65;;;;;;;22.33;93.64;99737.06;4952821;29;20034;-65
2022/07/25 00:08:41;;;;;;;8.43;4.82;;;;;;;22.27;94.54;99745.72;4955420;28;20026;-65
2022/07/25 00:11:07;;;;;;;8.45;4.95;;;;;;;22.18;95.34;99741.06;4953186;28;20422;-65
2022/07/25 00:13:32;;;;;;;7.43;4.72;;;;;;;22.10;96.25;99735.44;4952951;29;20039;-65
2022/07/25 00:15:58;;;;;;;7.85;5.18;;;;;;;22.03;97.03;99735.09;4952825;29;20472;-66
2022/07/25 00:18:23;;;;;;;8.25;5.22;;;;;;;21.96;97.45;99730.31;4952787;29;20027;-65
2022/07/25 00:20:49;;;;;;;8.38;5.40;;;;;;;21.88;98.64;99727.38;4953080;29;20073;-66
2022/07/25 00:23:14;;;;;;;9.18;5.10;;;;;;;21.80;98.83;99724.44;4952923;29;20369;-66
2022/07/25 00:25:39;;;;;;;8.32;5.10;;;;;;;21.78;99.96;99731.84;4952684;29;20499;-66
2022/07/25 00:28:05;;;;;;;9.90;5.35;;;;;;;21.77;99.86;99717.47;4952270;29;20082;-65
2022/07/25 00:30:30;;;;;;;7.60;4.80;;;;;;;21.75;99.95;99722.09;4951143;29;20077;-65
2022/07/25 00:32:58;;;;;;;8.50;5.50;;;;;;;21.76;100.00;99720.25;4950788;29;20027;-65
2022/07/25 00:35:24;;;;;;;6.93;4.93;;;;;;;21.67;100.00;99704.78;4950927;29;20106;-65
2022/07/25 00:37:49;;;;;;;9.02;5.70;;;;;;;21.69;100.00;99716.34;4950475;29;20107;-65
2022/07/25 00:40:15;;;;;;;10.02;5.75;;;;;;;21.63;100.00;99709.56;4951218;29;20027;-65
2022/07/25 00:42:40;;;;;;;8.50;4.78;;;;;;;21.58;100.00;99717.22;4949905;29;20035;-65
2022/07/25 00:45:06;;;;;;;10.48;5.35;;;;;;;21.50;100.00;99708.88;4953138;28;20464;-65
2022/07/25 00:47:32;;;;;;;7.85;4.75;;;;;;;21.46;100.00;99709.25;4950957;29;20028;-65
2022/07/25 00:49:57;;;;;;;9.57;4.97;;;;;;;21.42;100.00;99705.06;4951674;29;20039;-65
2022/07/25 00:52:23;;;;;;;10.20;5.70;;;;;;;21.37;100.00;99702.75;4951142;29;20472;-65
2022/07/25 00:54:49;;;;;;;9.55;5.15;;;;;;;21.32;100.00;99704.97;4951130;29;20081;-65
2022/07/25 00:57:14;;;;;;;9.35;4.95;;;;;;;21.22;100.00;99697.72;4952383;29;20098;-65
2022/07/25 00:59:40;;;;;;;9.52;5.13;;;;;;;21.24;100.00;99693.03;4952662;29;20031;-66
2022/07/25 01:02:05;;;;;;;7.30;4.88;;;;;;;21.20;100.00;99699.69;4952704;29;20031;-65
2022/07/25 01:04:31;;;;;;;9.23;6.07;;;;;;;21.16;100.00;99696.38;4952375;29;20043;-65
2022/07/25 01:06:57;;;;;;;9.40;5.55;;;;;;;21.13;100.00;99698.47;4952503;29;20050;-65
2022/07/25 01:09:22;;;;;;;7.75;5.28;;;;;;;21.13;100.00;99693.06;4938029;29;20046;-65
2022/07/25 01:11:48;;;;;;;9.73;6.00;;;;;;;21.11;100.00;99695.00;4952424;29;20122;-65
2022/07/25 01:14:13;;;;;;;10.07;5.38;;;;;;;21.09;100.00;99692.44;4952849;29;20419;-66
2022/07/25 01:16:40;;;;;;;8.23;5.65;;;;;;;21.05;100.00;99679.28;4952250;29;20033;-65
2022/07/25 01:19:06;;;;;;;9.00;5.85;;;;;;;21.03;100.00;99676.72;4952360;29;20119;-65
2022/07/25 01:21:31;;;;;;;8.93;5.63;;;;;;;21.05;100.00;99673.88;4952035;29;21172;-65
2022/07/25 01:23:57;;;;;;;9.05;5.30;;;;;;;21.02;100.00;99674.13;4952262;29;20062;-66
2022/07/25 01:26:22;;;;;;;9.35;5.18;;;;;;;21.00;100.00;99666.16;4952749;28;20043;-65
2022/07/25 01:28:48;;;;;;;8.18;5.30;;;;;;;21.00;100.00;99676.09;4972822;28;20026;-65
2022/07/25 01:31:13;;;;;;;8.00;5.40;;;;;;;20.97;100.00;99662.78;4974744;28;20042;-65
2022/07/25 01:33:39;;;;;;;13.40;5.53;;;;;;;20.95;100.00;99663.75;4957413;28;20043;-65
2022/07/25 01:36:04;;;;;;;9.10;5.20;;;;;;;20.93;100.00;99660.34;4974917;28;20467;-65
2022/07/25 01:38:30;;;;;;;8.73;5.35;;;;;;;20.89;100.00;99656.16;4974849;28;20081;-65
2022/07/25 01:40:55;;;;;;;8.40;4.72;;;;;;;20.84;100.00;99669.19;4974763;28;20027;-66
2022/07/25 01:43:21;;;;;;;8.98;5.88;;;;;;;20.84;100.00;99666.47;4972025;28;20105;-65
2022/07/25 01:45:46;;;;;;;9.10;5.53;;;;;;;20.80;100.00;99675.81;4954730;29;20118;-65
2022/07/25 01:48:12;;;;;;;10.30;6.13;;;;;;;20.75;100.00;99666.34;4955299;28;20510;-65
2022/07/25 01:50:37;;;;;;;9.38;5.75;;;;;;;20.71;100.00;99660.31;4955274;29;20496;-65
2022/07/25 01:53:03;;;;;;;9.93;6.20;;;;;;;20.74;100.00;99673.59;4955120;29;20035;-65
2022/07/25 01:55:28;;;;;;;9.55;5.47;;;;;;;20.74;100.00;99668.19;4955335;29;20110;-66
2022/07/25 01:57:54;;;;;;;10.13;6.28;;;;;;;20.78;100.00;99669.66;4955180;29;20495;-65
2022/07/25 02:00:19;;;;;;;10.23;7.00;;;;;;;20.91;100.00;99666.84;4954949;29;20027;-65
2022/07/25 02:02:45;;;;;;;11.32;7.13;;;;;;;21.00;100.00;99665.28;4955267;28;20027;-65
2022/07/25 02:05:12;;;;;;;10.23;6.88;;;;;;;21.07;100.00;99669.22;4957801;28;20102;-65
2022/07/25 02:07:38;;;;;;;10.95;7.40;;;;;;;21.19;99.16;99665.50;4955025;29;20405;-65
2022/07/25 02:10:05;;;;;;;8.63;5.80;;;;;;;21.24;98.66;99657.84;4953694;29;20391;-65
2022/07/25 02:12:31;;;;;;;9.48;6.18;;;;;;;21.12;98.05;99653.47;4952890;29;20038;-65
2022/07/25 02:14:56;;;;;;;10.48;6.80;;;;;;;21.02;98.49;99652.50;4951907;29;20023;-65
2022/07/25 02:17:22;;;;;;;8.77;5.40;;;;;;;20.95;99.23;99647.53;4951998;29;20054;-65
2022/07/25 02:19:47;;;;;;;14.50;6.15;;;;;;;20.88;99.83;99651.75;4951733;29;20488;-65
2022/07/25 02:22:13;;;;;;;54.38;51.47;;;;;;;20.80;99.99;99654.19;4952905;29;20023;-66
2022/07/25 02:24:38;;;;;;;9.27;5.80;;;;;;;20.74;100.00;99651.97;4952577;29;20115;-66
2022/07/25 02:27:04;;;;;;;9.48;6.15;;;;;;;20.68;100.00;99646.19;4952758;29;20027;-66
2022/07/25 02:29:31;;;;;;;7.82;5.38;;;;;;;20.64;100.00;99655.53;4952393;29;20038;-66
2022/07/25 02:31:56;;;;;;;11.63;5.70;;;;;;;20.58;100.00;99645.19;4952653;29;20161;-66
2022/07/25 02:34:22;;;;;;;9.00;5.82;;;;;;;20.56;100.00;99653.44;4952327;29;20070;-66
2022/07/25 02:36:47;;;;;;;10.20;6.55;;;;;;;20.56;100.00;99656.13;4952694;29;20114;-66
2022/07/25 02:39:13;;;;;;;10.65;5.93;;;;;;;20.51;100.00;99657.50;4952782;28;20039;-66
2022/07/25 02:41:38;;;;;;;11.20;5.63;;;;;;;20.41;100.00;99640.28;4953950;29;20041;-66
2022/07/25 02:44:05;;;;;;;9.93;6.18;;;;;;;20.40;100.00;99643.94;4953974;29;20019;-66
2022/07/25 02:46:31;;;;;;;11.45;10.43;;;;;;;20.38;100.00;99645.91;4952265;29;20034;-66
2022/07/25 02:48:56;;;;;;;9.70;5.82;;;;;;;20.15;100.00;99612.59;4954825;28;20060;-66
2022/07/25 02:51:22;;;;;;;7.97;5.47;;;;;;;20.34;100.00;99649.84;4952439;29;20522;-66
2022/07/25 02:53:47;;;;;;;10.13;6.20;;;;;;;20.30;100.00;99654.63;4952289;29;20046;-66
2022/07/25 02:56:12;;;;;;;10.25;5.57;;;;;;;20.28;100.00;99645.75;4952082;29;20103;-66
2022/07/25 02:58:38;;;;;;;9.98;5.82;;;;;;;20.27;100.00;99633.25;4953253;28;20031;-66
2022/07/25 03:01:03;;;;;;;14.48;13.32;;;;;;;20.22;100.00;99630.03;4954087;29;20034;-65
2022/07/25 03:03:29;;;;;;;10.68;6.65;;;;;;;20.19;100.00;99629.41;4954004;29;20055;-65
2022/07/25 03:05:55;;;;;;;12.40;6.65;;;;;;;20.22;100.00;99638.16;4956080;28;20493;-65
2022/07/25 03:08:20;;;;;;;13.02;6.07;;;;;;;20.16;100.00;99630.53;4936648;29;20042;-65
2022/07/25 03:10:45;;;;;;;10.27;6.25;;;;;;;20.18;100.00;99636.66;4953898;29;20027;-66
2022/07/25 03:13:11;;;;;;;10.77;6.70;;;;;;;20.20;100.00;99647.34;4953848;29;20430;-66
2022/07/25 03:15:36;;;;;;;10.50;6.43;;;;;;;20.21;100.00;99643.69;4953925;29;20019;-66
2022/07/25 03:18:02;;;;;;;9.88;5.55;;;;;;;20.16;100.00;99646.75;4953784;29;20055;-66
2022/07/25 03:20:27;;;;;;;9.38;6.13;;;;;;;20.08;100.00;99641.00;4953706;29;20054;-65
2022/07/25 03:22:52;;;;;;;13.07;5.72;;;;;;;20.06;100.00;99640.28;4953838;29;20550;-65
2022/07/25 03:25:18;;;;;;;9.75;6.22;;;;;;;20.07;100.00;99649.22;4953249;29;20046;-65
2022/07/25 03:27:43;;;;;;;8.30;5.47;;;;;;;19.89;100.00;99608.31;4943604;28;20134;-65
2022/07/25 03:30:11;;;;;;;9.45;5.60;;;;;;;20.02;100.00;99643.31;4934429;29;20040;-65
2022/07/25 03:32:36;;;;;;;10.52;6.13;;;;;;;20.06;100.00;99639.44;4933794;29;20027;-65
2022/07/25 03:35:02;;;;;;;10.32;5.90;;;;;;;19.98;100.00;99637.31;4932724;29;20423;-65
2022/07/25 03:37:27;;;;;;;9.02;5.65;;;;;;;19.97;100.00;99635.59;4932861;29;20035;-65
2022/07/25 03:39:53;;;;;;;8.82;5.88;;;;;;;19.93;100.00;99634.13;4933652;29;20107;-65
2022/07/25 03:42:19;;;;;;;11.73;7.07;;;;;;;19.90;100.00;99636.19;4952687;29;20027;-65
2022/07/25 03:44:44;;;;;;;9.30;5.43;;;;;;;19.93;100.00;99641.34;4953238;29;20078;-65
2022/07/25 03:47:09;;;;;;;10.50;5.88;;;;;;;19.95;100.00;99645.63;4953048;28;20361;-65
2022/07/25 03:49:35;;;;;;;11.73;5.80;;;;;;;19.95;100.00;99631.31;4953271;29;20118;-65
2022/07/25 03:52:00;;;;;;;11.60;6.18;;;;;;;20.02;100.00;99636.09;4952702;28;20020;-65
2022/07/25 03:54:26;;;;;;;10.38;5.88;;;;;;;20.00;100.00;99638.03;4953036;29;20035;-65
2022/07/25 03:56:52;;;;;;;11.63;6.15;;;;;;;19.93;100.00;99626.03;4952861;29;20027;-65
2022/07/25 03:59:20;;;;;;;10.80;5.78;;;;;;;19.98;100.00;99631.06;4953213;29;20090;-65
2022/07/25 04:01:48;;;;;;;10.20;5.80;;;;;;;20.01;100.00;99636.22;4953350;29;20416;-65
2022/07/25 04:04:14;;;;;;;12.07;6.63;;;;;;;19.93;100.00;99631.41;4952917;29;20408;-65
2022/07/25 04:06:39;;;;;;;9.98;5.43;;;;;;;19.91;100.00;99630.66;4955586;28;20050;-65
2022/07/25 04:09:06;;;;;;;9.38;6.10;;;;;;;19.97;100.00;99630.19;4953102;29;20031;-65
2022/07/25 04:11:31;;;;;;;11.38;5.82;;;;;;;20.01;100.00;99629.00;4953009;29;20023;-65
2022/07/25 04:13:57;;;;;;;9.43;5.85;;;;;;;20.03;100.00;99635.09;4952977;29;20047;-65
2022/07/25 04:16:23;;;;;;;10.77;6.28;;;;;;;19.98;100.00;99639.16;4952864;29;20057;-65
2022/07/25 04:18:51;;;;;;;9.85;6.20;;;;;;;20.00;100.00;99639.91;4953004;29;20031;-65
2022/07/25 04:21:17;;;;;;;10.18;5.88;;;;;;;20.03;100.00;99639.66;4952845;29;20496;-65
2022/07/25 04:23:42;;;;;;;11.18;6.55;;;;;;;20.06;100.00;99631.31;4952876;29;20062;-65
2022/07/25 04:26:08;;;;;;;9.98;5.68;;;;;;;20.04;100.00;99635.97;4952463;29;20078;-65
2022/07/25 04:28:34;;;;;;;14.13;7.38;;;;;;;20.03;100.00;99636.97;4952909;29;20395;-65
2022/07/25 04:30:59;;;;;;;13.90;6.78;;;;;;;20.04;100.00;99631.44;4952806;29;20041;-65
2022/07/25 04:33:25;;;;;;;16.73;7.18;;;;;;;20.04;100.00;99626.03;4935411;29;20027;-65
2022/07/25 04:35:50;;;;;;;12.25;7.28;;;;;;;20.12;100.00;99629.00;4952321;29;20443;-65
2022/07/25 04:38:16;;;;;;;12.07;6.60;;;;;;;20.17;100.00;99624.16;4952418;29;20102;-65
2022/07/25 04:40:41;;;;;;;11.65;6.43;;;;;;;20.16;100.00;99630.53;4952939;29;20039;-65
2022/07/25 04:43:07;;;;;;;10.77;7.07;;;;;;;20.23;100.00;99620.13;4952808;29;20031;-65
2022/07/25 04:45:33;;;;;;;16.27;6.57;;;;;;;20.35;100.00;99620.00;4952405;29;20368;-65
2022/07/25 04:47:59;;;;;;;11.63;6.60;;;;;;;20.43;100.00;99622.97;4952272;29;20043;-65
2022/07/25 04:50:25;;;;;;;11.18;6.68;;;;;;;20.42;100.00;99623.94;4950945;29;20375;-65
2022/07/25 04:52:50;;;;;;;11.98;7.15;;;;;;;20.35;100.00;99603.78;4950867;29;20032;-65
2022/07/25 04:55:16;;;;;;;9.98;6.40;;;;;;;20.54;100.00;99609.44;4950491;29;20024;-65
2022/07/25 04:57:41;;;;;;;11.50;6.88;;;;;;;20.60;100.00;99608.97;4953180;28;20858;-65
2022/07/25 05:00:08;;;;;;;9.88;6.40;;;;;;;20.69;100.00;99604.69;4951526;29;20106;-65
2022/07/25 05:02:34;;;;;;;11.15;6.78;;;;;;;20.79;100.00;99609.19;4952537;28;20023;-65
2022/07/25 05:05:00;;;;;;;9.60;6.78;;;;;;;20.88;100.00;99608.47;4955667;29;20134;-65
2022/07/25 05:07:26;;;;;;;10.25;6.47;;;;;;;20.99;100.00;99606.78;4956146;29;20033;-65
2022/07/25 05:09:51;;;;;;;13.48;7.07;;;;;;;21.08;100.00;99608.72;4958667;28;20027;-65
2022/07/25 05:12:17;;;;;;;11.82;7.85;;;;;;;21.12;100.00;99602.09;4956109;29;20035;-65
2022/07/25 05:14:43;;;;;;;11.02;6.75;;;;;;;21.28;100.00;99605.22;4955964;29;20038;-65
2022/07/25 05:17:09;;;;;;;12.70;7.85;;;;;;;21.46;98.84;99604.56;4955530;29;20038;-65
2022/07/25 05:19:34;;;;;;;9.50;6.45;;;;;;;21.56;97.98;99607.38;4970193;28;20494;-65
2022/07/25 05:22:00;;;;;;;14.25;7.18;;;;;;;21.66;97.39;99600.19;4975279;28;20027;-65
2022/07/25 05:24:26;;;;;;;11.30;7.65;;;;;;;21.92;97.29;99598.84;4951006;28;20028;-65
2022/07/25 05:26:51;;;;;;;13.50;7.60;;;;;;;22.12;94.70;99598.84;4940748;29;20094;-65
2022/07/25 05:29:17;;;;;;;9.35;6.82;;;;;;;22.25;93.51;99601.38;4954348;29;20039;-66
2022/07/25 05:31:42;;;;;;;13.18;6.50;;;;;;;22.36;91.98;99593.16;4954448;29;20371;-64
2022/07/25 05:34:08;;;;;;;9.55;6.38;;;;;;;22.54;90.96;99594.28;4954128;29;20039;-65
2022/07/25 05:36:33;;;;;;;14.93;7.00;;;;;;;22.65;91.18;99591.47;4954212;29;20337;-65
2022/07/25 05:38:59;;;;;;;12.68;7.30;;;;;;;22.79;90.64;99601.97;4954187;29;20796;-65
2022/07/25 05:41:25;;;;;;;14.25;7.40;;;;;;;22.90;91.20;99593.72;4955504;29;20089;-64
2022/07/25 05:43:51;;;;;;;11.57;6.65;;;;;;;23.01;90.55;99593.63;4955031;29;20109;-64
2022/07/25 05:46:17;;;;;;;13.82;7.13;;;;;;;23.08;89.92;99597.47;4955234;29;20035;-65
2022/07/25 05:48:42;;;;;;;13.27;7.43;;;;;;;23.13;88.84;99600.63;4955492;29;20019;-65
2022/07/25 05:51:08;;;;;;;12.85;7.50;;;;;;;23.22;87.80;99602.53;4954957;29;20113;-65
2022/07/25 05:53:35;;;;;;;13.65;7.40;;;;;;;23.27;84.62;99607.56;4951005;29;20100;-65
2022/07/25 05:56:00;;;;;;;11.30;7.00;;;;;;;23.35;83.68;99603.16;4936082;29;20032;-65
2022/07/25 05:58:25;;;;;;;11.32;7.10;;;;;;;23.49;83.10;99598.31;4936154;29;20043;-65
2022/07/25 06:00:51;;;;;;;11.80;7.18;;;;;;;23.61;82.45;99589.06;4935937;29;20158;-66
2022/07/25 06:03:17;;;;;;;14.23;6.57;;;;;;;23.77;81.57;99586.63;4938292;29;20043;-65
2022/07/25 06:05:44;;;;;;;12.93;7.47;;;;;;;23.91;80.43;99594.31;4953474;29;20102;-65
2022/07/25 06:08:09;;;;;;;10.65;7.00;;;;;;;24.02;78.61;99581.47;4953577;29;20031;-65
2022/07/25 06:10:35;;;;;;;14.65;7.22;;;;;;;24.17;77.81;99584.59;4953545;29;20034;-65
2022/07/25 06:13:00;;;;;;;11.30;7.03;;;;;;;24.31;77.54;99593.16;4953531;29;20399;-65
2022/07/25 06:15:26;;;;;;;9.40;6.22;;;;;;;24.48;76.17;99597.00;4955737;28;20235;-65
2022/07/25 06:17:51;;;;;;;8.93;5.97;;;;;;;24.45;76.04;99584.53;4954263;29;20027;-65
2022/07/25 06:20:17;;;;;;;10.32;6.72;;;;;;;24.58;76.67;99590.50;4954948;29;20031;-65
2022/07/25 06:22:42;;;;;;;9.13;6.28;;;;;;;24.72;75.10;99591.91;4954576;29;20062;-65
2022/07/25 06:25:08;;;;;;;9.43;6.85;;;;;;;24.89;73.67;99591.13;4954617;29;20042;-65
2022/07/25 06:27:34;;;;;;;9.68;6.40;;;;;;;24.97;73.55;99588.50;4954621;29;20031;-64
2022/07/25 06:30:02;;;;;;;9.35;6.82;;;;;;;25.15;73.53;99594.84;4953997;29;20038;-65
2022/07/25 06:32:28;;;;;;;9.63;6.30;;;;;;;25.30;72.13;99574.28;4954561;29;20069;-65
2022/07/25 06:34:53;;;;;;;12.77;6.82;;;;;;;25.47;71.57;99576.19;4954563;29;20558;-65
2022/07/25 06:37:18;;;;;;;12.13;6.93;;;;;;;25.64;71.39;99574.47;4954228;29;20391;-66
2022/07/25 06:39:44;;;;;;;10.30;6.55;;;;;;;25.82;70.27;99576.19;4955004;29;20559;-65
2022/07/25 06:42:09;;;;;;;12.43;6.13;;;;;;;26.00;70.41;99580.78;4953919;29;20433;-65
2022/07/25 06:44:35;;;;;;;9.05;6.78;;;;;;;26.10;68.84;99576.09;4954407;28;20027;-65
2022/07/25 06:47:01;;;;;;;9.07;6.55;;;;;;;26.21;67.93;99573.97;4954255;29;20074;-65
2022/07/25 06:49:27;;;;;;;9.02;6.13;;;;;;;26.37;66.78;99575.97;4954318;29;20031;-66
2022/07/25 06:51:53;;;;;;;8.52;6.40;;;;;;;26.60;67.78;99585.31;4953940;29;20038;-66
2022/07/25 06:54:18;;;;;;;13.00;6.72;;;;;;;26.78;66.78;99578.81;4954202;29;20031;-65
2022/07/25 06:56:44;;;;;;;17.67;6.57;;;;;;;26.97;65.52;99581.28;4952991;29;20062;-65
2022/07/25 06:59:10;;;;;;;10.05;6.65;;;;;;;27.11;65.17;99575.22;4954134;29;20051;-66
2022/07/25 07:01:36;;;;;;;10.13;6.38;;;;;;;27.22;63.72;99576.75;4956132;28;20479;-66
2022/07/25 07:04:01;;;;;;;10.98;6.75;;;;;;;27.39;63.43;99573.09;4953966;29;20134;-66
2022/07/25 07:06:27;;;;;;;10.77;6.10;;;;;;;27.53;62.08;99569.69;4953899;29;20491;-66
2022/07/25 07:08:52;;;;;;;10.15;7.10;;;;;;;27.67;62.45;99571.78;4953894;29;20031;-66
2022/07/25 07:11:18;;;;;;;8.68;5.88;;;;;;;27.98;62.45;99572.88;4954194;28;20482;-66
2022/07/25 07:13:43;;;;;;;9.05;6.43;;;;;;;28.28;60.93;99577.63;4955822;28;20030;-66
2022/07/25 07:16:09;;;;;;;8.35;6.13;;;;;;;28.45;58.35;99575.75;4953753;29;20030;-66
2022/07/25 07:18:35;;;;;;;8.23;6.05;;;;;;;28.64;57.15;99560.81;4954346;29;20035;-66
2022/07/25 07:21:01;;;;;;;8.90;5.85;;;;;;;28.89;58.61;99571.53;4953803;28;20027;-66
2022/07/25 07:23:27;;;;;;;10.32;5.90;;;;;;;29.24;55.80;99572.97;4954501;28;20038;-66
2022/07/25 07:25:52;;;;;;;9.20;5.50;;;;;;;29.57;54.84;99577.22;4952967;28;20365;-66
2022/07/25 07:28:19;;;;;;;10.32;5.68;;;;;;;29.86;53.97;99576.50;4953261;29;20055;-66
2022/07/25 07:30:44;;;;;;;8.98;5.95;;;;;;;30.05;52.31;99570.56;4951797;29;20043;-66
2022/07/25 07:33:10;;;;;;;11.00;5.88;;;;;;;30.29;52.19;99571.22;4952088;29;20031;-66
2022/07/25 07:35:35;;;;;;;10.98;6.45;;;;;;;30.46;50.96;99575.50;4951998;29;20019;-66
2022/07/25 07:38:01;;;;;;;7.95;6.03;;;;;;;30.55;50.91;99579.88;4951805;29;20519;-67
2022/07/25 07:40:26;;;;;;;9.25;5.40;;;;;;;30.75;49.83;99572.78;4952891;29;20046;-67
2022/07/25 07:42:52;;;;;;;9.45;5.90;;;;;;;30.88;50.27;99573.00;4952051;29;20066;-67
2022/07/25 07:45:22;;;;;;;8.07;5.80;;;;;;;31.27;50.18;99580.91;4934419;29;20376;-67
2022/07/25 07:47:49;;;;;;;7.43;5.05;;;;;;;31.63;48.88;99576.31;4951754;29;20042;-67
2022/07/25 07:50:17;;;;;;;8.68;6.10;;;;;;;31.66;48.76;99583.34;4951692;29;20031;-67
2022/07/25 07:52:43;;;;;;;8.93;5.80;;;;;;;31.65;47.60;99584.38;4951683;29;20090;-67
2022/07/25 07:57:53;;;;;;;7.20;5.30;;;;;;;31.83;47.20;99569.13;4932586;29;20065;-67
2022/07/25 08:00:19;;;;;;;9.70;6.30;;;;;;;32.13;47.02;99577.28;4942050;29;20031;-67
2022/07/25 08:02:48;;;;;;;9.23;6.28;;;;;;;32.53;46.83;99574.69;4952771;29;20539;-67
2022/07/25 08:05:23;;;;;;;8.48;6.00;;;;;;;32.90;44.77;99577.09;4952568;29;20047;-67
2022/07/25 08:07:50;;;;;;;8.27;5.40;;;;;;;33.28;44.53;99575.59;4951609;29;20106;-67
2022/07/25 08:10:21;;;;;;;9.70;5.95;;;;;;;33.55;44.95;99572.97;4950057;29;20080;-67
2022/07/25 08:12:47;;;;;;;8.13;5.68;;;;;;;33.73;44.48;99570.47;4952441;28;20368;-67
2022/07/25 08:15:13;;;;;;;7.07;5.50;;;;;;;34.06;43.13;99568.66;4950422;28;20034;-67
2022/07/25 08:17:39;;;;;;;9.95;5.70;;;;;;;34.28;42.69;99570.16;4950033;29;20043;-67
2022/07/25 08:20:07;;;;;;;8.65;5.00;;;;;;;34.36;41.88;99570.81;4950615;29;20554;-68
2022/07/25 08:22:41;;;;;;;10.73;5.90;;;;;;;34.48;40.91;99571.03;4950687;29;20407;-67
2022/07/25 08:25:08;;;;;;;7.18;5.45;;;;;;;34.35;42.20;99568.25;4934162;29;20024;-67
2022/07/25 08:27:34;;;;;;;8.57;5.78;;;;;;;34.54;42.56;99568.28;4942870;29;20042;-68
2022/07/25 08:30:00;;;;;;;7.57;5.30;;;;;;;34.84;39.79;99571.41;4950807;29;20027;-68
2022/07/25 08:32:27;;;;;;;8.25;5.70;;;;;;;35.04;39.80;99565.84;4951296;29;20042;-68
2022/07/25 08:34:53;;;;;;;8.27;5.22;;;;;;;35.12;38.92;99572.00;4934067;29;20391;-68
2022/07/25 08:37:18;;;;;;;7.95;5.65;;;;;;;35.24;38.18;99564.72;4952381;28;20046;-68
2022/07/25 08:39:44;;;;;;;7.70;5.40;;;;;;;35.48;38.68;99564.00;4955151;29;20498;-68
2022/07/25 08:42:09;;;;;;;7.82;5.75;;;;;;;35.95;38.70;99559.09;4955236;29;20074;-68
2022/07/25 08:44:39;;;;;;;8.65;5.03;;;;;;;36.41;37.95;99567.91;4937739;29;20035;-69
2022/07/25 08:47:06;;;;;;;8.45;5.25;;;;;;;36.86;36.83;99566.63;4955034;29;20364;-69
2022/07/25 08:49:34;;;;;;;11.77;5.07;;;;;;;36.95;36.09;99565.28;4954566;29;20027;-69
2022/07/25 08:52:00;;;;;;;7.68;5.50;;;;;;;37.00;36.23;99560.72;4954777;28;20027;-69
2022/07/25 08:54:26;;;;;;;7.13;5.18;;;;;;;36.88;35.65;99559.81;4942141;29;20023;-70
2022/07/25 08:56:51;;;;;;;9.13;5.13;;;;;;;36.84;36.75;99563.25;4937180;29;20099;-69
2022/07/25 08:59:16;;;;;;;8.80;5.30;;;;;;;37.02;36.33;99565.19;4937126;29;20030;-69
2022/07/25 09:01:42;;;;;;;6.88;5.07;;;;;;;37.25;35.58;99563.44;4937217;29;20026;-70
2022/07/25 09:04:08;;;;;;;7.85;5.13;;;;;;;37.37;35.12;99560.72;4947223;28;20142;-70
2022/07/25 09:06:34;;;;;;;7.32;5.05;;;;;;;37.64;35.06;99549.06;4955857;29;20030;-70
2022/07/25 09:09:03;;;;;;;8.68;5.30;;;;;;;37.78;35.72;99549.72;4955936;29;20027;-70
2022/07/25 09:11:35;;;;;;;7.78;5.80;;;;;;;37.88;35.12;99542.53;4954756;29;20027;-70
2022/07/25 09:14:06;;;;;;;7.93;5.35;;;;;;;38.14;33.96;99538.50;4954763;29;20027;-70
2022/07/25 09:16:34;;;;;;;8.82;5.05;;;;;;;38.40;34.55;99538.06;4957305;28;20044;-70
2022/07/25 09:19:14;;;;;;;6.97;5.47;;;;;;;38.69;33.15;99544.63;4936998;29;20620;-70
2022/07/25 09:21:41;;;;;;;6.80;4.82;;;;;;;38.67;33.85;99546.78;4954542;29;20027;-70
2022/07/25 09:24:15;;;;;;;8.80;4.95;;;;;;;38.44;33.88;99538.44;4956843;28;20486;-70
2022/07/25 09:26:47;;;;;;;10.60;5.22;;;;;;;38.40;33.36;99532.53;4938303;29;20042;-70
2022/07/25 09:29:32;;;;;;;6.88;4.60;;;;;;;38.67;33.19;99532.91;4954874;29;20023;-70
2022/07/25 09:31:59;;;;;;;7.03;4.40;;;;;;;39.00;34.03;99528.41;4954079;29;20035;-70
2022/07/25 09:34:33;;;;;;;6.95;4.75;;;;;;;39.18;33.07;99524.63;4954159;29;20027;-70
2022/07/25 09:37:00;;;;;;;7.07;4.75;;;;;;;39.37;32.24;99518.66;4954361;29;20035;-70
2022/07/25 09:39:32;;;;;;;7.10;5.13;;;;;;;39.47;31.85;99531.97;4954161;28;20050;-71
2022/07/25 09:41:58;;;;;;;7.10;5.05;;;;;;;39.30;32.23;99528.22;4953894;29;20023;-71
2022/07/25 09:44:29;;;;;;;8.40;5.20;;;;;;;39.29;31.93;99527.38;4954666;29;20608;-71
2022/07/25 09:47:08;;;;;;;7.82;4.68;;;;;;;39.84;33.49;99516.53;4954913;29;20035;-70
2022/07/25 09:49:46;;;;;;;6.03;4.57;;;;;;;40.25;31.62;99530.09;4937148;29;20027;-70
2022/07/25 09:52:11;;;;;;;7.10;4.38;;;;;;;40.37;30.39;99528.13;4954612;29;20440;-70
2022/07/25 09:54:39;;;;;;;6.82;4.85;;;;;;;40.47;30.42;99530.22;4948926;29;20026;-70
2022/07/25 09:57:05;;;;;;;6.03;4.68;;;;;;;40.84;30.20;99524.97;4936040;29;20031;-70
2022/07/25 09:59:35;;;;;;;7.45;4.45;;;;;;;40.79;30.87;99527.69;4940818;29;20603;-70
2022/07/25 10:02:11;;;;;;;8.43;4.80;;;;;;;40.45;30.89;99515.69;4953747;29;20055;-70
2022/07/25 10:05:04;;;;;;;6.50;4.50;;;;;;;39.92;31.62;99513.34;4953312;29;20051;-70
2022/07/25 10:07:30;;;;;;;8.10;4.88;;;;;;;39.83;31.24;99511.19;4953967;29;20483;-70
2022/07/25 10:09:56;;;;;;;6.20;4.40;;;;;;;39.84;32.33;99508.16;4953444;29;20395;-70
2022/07/25 10:12:22;;;;;;;6.22;4.00;;;;;;;40.09;30.60;99511.44;4953735;29;20083;-70
2022/07/25 10:15:08;;;;;;;8.10;4.85;;;;;;;40.15;29.65;99510.41;4937559;29;20030;-69
2022/07/25 10:17:35;;;;;;;7.50;4.75;;;;;;;40.00;30.45;99496.22;4954718;29;20027;-69
2022/07/25 10:20:00;;;;;;;6.85;4.47;;;;;;;39.75;31.78;99503.25;4954852;29;20023;-69
2022/07/25 10:22:43;;;;;;;6.00;4.47;;;;;;;39.88;31.49;99501.03;4957368;28;20480;-69
2022/07/25 10:25:16;;;;;;;6.50;4.28;;;;;;;40.21;30.56;99498.28;4937250;29;20118;-70
2022/07/25 10:27:47;;;;;;;6.82;4.05;;;;;;;40.30;31.68;99493.97;4937310;29;20039;-70
2022/07/25 10:30:22;;;;;;;7.55;4.80;;;;;;;40.42;30.66;99494.75;4954673;29;20863;-70
2022/07/25 10:33:16;;;;;;;8.27;4.63;;;;;;;40.48;29.62;99492.88;4953743;29;20042;-70
2022/07/25 10:35:42;;;;;;;6.45;4.75;;;;;;;40.63;29.83;99502.31;4929716;29;20488;-70
2022/07/25 10:38:08;;;;;;;7.80;4.80;;;;;;;40.80;30.05;99495.88;4953093;28;20027;-70
2022/07/25 10:40:38;;;;;;;6.72;4.65;;;;;;;40.91;29.20;99492.97;4953066;29;20574;-70
2022/07/25 10:43:21;;;;;;;5.90;4.30;;;;;;;40.77;30.20;99485.25;4954314;29;20034;-70
2022/07/25 10:45:56;;;;;;;6.53;4.03;;;;;;;41.09;30.05;99486.25;4954896;28;20015;-70
2022/07/25 10:48:30;;;;;;;7.47;3.92;;;;;;;41.27;29.13;99495.16;4952355;29;20040;-70
2022/07/25 10:50:57;;;;;;;7.32;4.55;;;;;;;41.38;29.23;99493.31;4952050;29;20106;-70
2022/07/25 10:53:39;;;;;;;6.10;4.43;;;;;;;41.61;29.11;99488.31;4949248;29;20070;-70
2022/07/25 10:56:06;;;;;;;;;;;;;;;41.52;28.97;99489.00;4936906;29;20050;-70
2022/07/25 10:58:49;;;;;;;10.57;3.97;;;;;;;41.62;29.41;99473.25;4952303;29;19910;-70
2022/07/25 11:01:21;;;;;;;6.03;3.92;;;;;;;41.37;29.80;99486.06;4936429;29;20114;-70
2022/07/25 11:03:47;;;;;;;6.45;4.57;;;;;;;40.94;30.34;99484.06;4954200;29;20064;-70
2022/07/25 11:06:14;;;;;;;6.40;4.55;;;;;;;40.79;31.07;99478.31;4953836;29;20112;-70
2022/07/25 11:08:41;;;;;;;5.55;4.43;;;;;;;40.43;30.97;99476.91;4953965;29;20474;-70
2022/07/25 11:11:09;;;;;;;5.68;4.15;;;;;;;40.30;31.92;99474.47;4956249;28;20046;-70
2022/07/25 11:13:41;;;;;;;6.45;5.07;;;;;;;40.16;31.43;99475.88;4953672;28;20035;-70
2022/07/25 11:16:07;;;;;;;;;;;;;;;39.82;32.83;99471.34;4955176;28;20058;-70
2022/07/25 11:18:39;;;;;;;6.80;4.93;;;;;;;39.48;32.51;99468.75;4953586;29;20001;-70
2022/07/25 11:21:06;;;;;;;6.20;4.40;;;;;;;39.77;32.44;99474.03;4953806;29;20038;-70
2022/07/25 11:23:33;;;;;;;5.05;4.05;;;;;;;39.96;31.00;99481.13;4949401;29;20268;-70
2022/07/25 11:26:12;;;;;;;7.10;4.53;;;;;;;40.66;31.11;99480.59;4934452;29;20028;-70
2022/07/25 11:28:43;;;;;;;7.38;4.40;;;;;;;41.22;29.30;99471.91;4953188;29;20106;-70